Airfield :
LOGIN :

Register | Disclaimer

   EN    FR    IT 

 










Legend :    VFR   Marginal VFR   IFR   Intensive IFR   Very Intensive IFR
Visi :
Ceiling :
>= 8 km
>= 3000ft
5 to 8 km
1000 to 3000 ft
1500m to 5 km
500 to 1000 ft
800 to 1500m
200 to 500 ft
< 800m
< 200 ft
Symbols :   Thunderstorms  Fog  Heavy snow  Heavy precipitations  Wind > 20 kt
SIGMETs :     Misc.  Thunderstorms  Icing  Turbulence  Mountain Waves  Volcanic Ashes







- Airport Elevation : 11 ft
- IATA code : SXL


EISG - Sligo

CURRENT METAR :
  • 191500Z 24025G36KT CAVOK 13/05 Q1000

EXPIRED METARs :
  • 191400Z 24024KT 9000 NSC 13/07 Q0999
  • 191330Z 24025G39KT CAVOK 12/05 Q0998
  • 191230Z 24028G39KT 9000 FEW016 11/07 Q0997

TAF TAF EISG
Valid from the 19 at 15:00 until the 20 at 00:00 UTC


191400Z 1915/1924 25025G42KT 9999 SCT020 BKN030
TEMPO 1915/1924 4000 SHRA SCT018CB
BECMG 1916/1918 23018G32KT
BECMG 1919/1921 24010KT
No reported NOTAMs for that airfield.
2 SIGMETs reported for the Shannon FIR (EISN) :
 
Severe turbulence
EISN SIGMET 09 VALID 191300/191700 EINN
EISN SHANNON FIR SEV TURB FCST N OF LINE N5216 W01500 - N5300 W00530 SFC/FL060 MOV NE 40KT WKN=
Severe mountain waves
EISN SIGMET 08 VALID 191200/191600 EINN
EISN SHANNON FIR/UIR SEV MTW FCST E OF W01030 3000FT/FL250 STNR NC=



MET'MAP, your aeronautical weather chart ! - Copyright ORBIFLY December 2007 - Disclaimer

ORBIFLY MET'MAP TEAM :

Programming & Development : Alexandra Zaïnal
Concept & Development : Baudouin d'Aumeries
Co-Development & Prog : Marc-Olivier Méhu
Technical & hardware support : Manuel Goepfert

Contact : metmap@orbifly.com




SOURCES & CREDITS :

   NOAA